Time;durP1;ratioP1;P1;durP2;ratioP2;P2;SDS_P1;SDS_P2;PMS_P1;PMS_P2;Temp;Humidity;BMP_temperature;BMP_pressure;BME280_temperature;BME280_humidity;BME280_pressure;Samples;Min_cycle;Max_cycle;Signal;HPM_P1;HPM_P2
2023/06/22 00:00:00;;;;;;;;;;;15.80;59.20;;;;;;4166289;28;20662;-82
2023/06/22 00:02:21;;;;;;;;;;;15.80;59.30;;;;;;4164767;28;19954;-84
2023/06/22 00:04:42;;;;;;;;;;;15.80;59.00;;;;;;4164185;28;19929;-84
2023/06/22 00:07:03;;;;;;;;;;;15.70;59.70;;;;;;4163679;28;19940;-83
2023/06/22 00:09:24;;;;;;;;;;;15.70;59.20;;;;;;4161922;28;19929;-83
2023/06/22 00:11:45;;;;;;;;;;;15.70;58.90;;;;;;4154122;28;19921;-83
2023/06/22 00:14:06;;;;;;;;;;;15.60;58.90;;;;;;4162207;28;19959;-84
2023/06/22 00:16:27;;;;;;;;;;;15.60;58.90;;;;;;4156703;28;19956;-84
2023/06/22 00:18:48;;;;;;;;;;;15.60;59.40;;;;;;4167536;28;20398;-83
2023/06/22 00:21:09;;;;;;;;;;;15.50;59.00;;;;;;4167540;28;19920;-83
2023/06/22 00:23:34;;;;;;;;;;;15.50;59.50;;;;;;4167415;28;19924;-83
2023/06/22 00:25:54;;;;;;;;;;;15.50;59.50;;;;;;4163977;28;19917;-82
2023/06/22 00:28:15;;;;;;;;;;;15.40;59.50;;;;;;4165481;28;20426;-82
2023/06/22 00:30:36;;;;;;;;;;;15.50;59.80;;;;;;4161378;28;19924;-83
2023/06/22 00:32:58;;;;;;;;;;;15.40;60.10;;;;;;4160932;28;19970;-82
2023/06/22 00:35:19;;;;;;;;;;;15.40;59.60;;;;;;4162040;28;19917;-83
2023/06/22 00:37:43;;;;;;;;;;;15.30;59.50;;;;;;4150313;28;19921;-84
2023/06/22 00:40:04;;;;;;;;;;;15.30;59.40;;;;;;4163040;28;19924;-83
2023/06/22 00:42:26;;;;;;;;;;;15.30;59.40;;;;;;4164694;28;20382;-83
2023/06/22 00:44:46;;;;;;;;;;;15.20;59.40;;;;;;4160377;28;19948;-82
2023/06/22 00:47:07;;;;;;;;;;;15.20;59.50;;;;;;4144535;28;19989;-84
2023/06/22 00:49:28;;;;;;;;;;;15.20;59.60;;;;;;4158306;28;20473;-84
2023/06/22 00:51:49;;;;;;;;;;;15.10;59.60;;;;;;4148316;28;19917;-83
2023/06/22 00:54:10;;;;;;;;;;;15.20;59.70;;;;;;4161949;28;20079;-83
2023/06/22 00:56:32;;;;;;;;;;;15.10;59.80;;;;;;4175400;28;20164;-82
2023/06/22 00:58:53;;;;;;;;;;;15.10;59.80;;;;;;4150009;28;19921;-84
2023/06/22 01:01:14;;;;;;;;;;;15.10;59.80;;;;;;4146236;28;20001;-84
2023/06/22 01:03:35;;;;;;;;;;;15.00;60.40;;;;;;4164080;28;19963;-83
2023/06/22 01:06:09;;;;;;;;;;;15.00;59.90;;;;;;4165141;28;20002;-82
2023/06/22 01:08:33;;;;;;;;;;;14.90;60.80;;;;;;4162054;28;19923;-83
2023/06/22 01:10:57;;;;;;;;;;;14.90;60.90;;;;;;4163689;28;19933;-84
2023/06/22 01:13:35;;;;;;;;;;;14.90;60.40;;;;;;4162345;28;20181;-83
2023/06/22 01:16:05;;;;;;;;;;;14.80;60.20;;;;;;4162317;28;20008;-83
2023/06/22 01:18:28;;;;;;;;;;;14.80;60.60;;;;;;4161031;28;19924;-83
2023/06/22 01:20:50;;;;;;;;;;;14.80;60.40;;;;;;4163298;28;19924;-83
2023/06/22 01:23:20;;;;;;;;;;;14.80;60.80;;;;;;4156941;28;20099;-83
2023/06/22 01:25:53;;;;;;;;;;;14.70;60.50;;;;;;4173559;28;19955;-83
2023/06/22 01:28:15;;;;;;;;;;;14.70;60.30;;;;;;4163478;28;19917;-82
2023/06/22 01:30:38;;;;;;;;;;;14.60;60.40;;;;;;4165671;28;19928;-83
2023/06/22 01:33:01;;;;;;;;;;;14.70;60.60;;;;;;4150098;28;20415;-83
2023/06/22 01:35:22;;;;;;;;;;;14.60;60.90;;;;;;4165796;28;19928;-83
2023/06/22 01:37:43;;;;;;;;;;;14.50;60.70;;;;;;4165880;28;19924;-82
2023/06/22 01:40:06;;;;;;;;;;;14.60;61.80;;;;;;4167452;28;19922;-83
2023/06/22 01:42:27;;;;;;;;;;;14.50;61.30;;;;;;4176305;28;19923;-85
2023/06/22 01:44:48;;;;;;;;;;;14.50;61.90;;;;;;4166363;28;19966;-83
2023/06/22 01:47:09;;;;;;;;;;;14.40;61.00;;;;;;4170892;28;19927;-83
2023/06/22 01:49:30;;;;;;;;;;;14.40;60.70;;;;;;4148925;28;19921;-83
2023/06/22 01:51:54;;;;;;;;;;;14.40;60.70;;;;;;4166333;28;19924;-84
2023/06/22 01:54:17;;;;;;;;;;;14.30;60.90;;;;;;4163689;28;20514;-83
2023/06/22 01:56:46;;;;;;;;;;;14.30;61.00;;;;;;4151952;28;20000;-84
2023/06/22 01:59:19;;;;;;;;;;;14.30;61.30;;;;;;4167198;28;19917;-81
2023/06/22 02:01:51;;;;;;;;;;;14.30;61.40;;;;;;4162097;28;19913;-82
2023/06/22 02:04:13;;;;;;;;;;;14.30;61.50;;;;;;4163032;28;20287;-84
2023/06/22 02:06:37;;;;;;;;;;;14.20;61.50;;;;;;4158993;28;20075;-82
2023/06/22 02:09:02;;;;;;;;;;;14.20;61.50;;;;;;4150785;28;19917;-82
2023/06/22 02:11:27;;;;;;;;;;;14.20;61.60;;;;;;4162614;28;19948;-83
2023/06/22 02:13:48;;;;;;;;;;;14.20;62.10;;;;;;4151917;28;20867;-80
2023/06/22 02:16:12;;;;;;;;;;;14.20;62.00;;;;;;4167523;28;19924;-82
2023/06/22 02:18:35;;;;;;;;;;;14.20;62.10;;;;;;4156867;28;19917;-82
2023/06/22 02:20:56;;;;;;;;;;;14.10;61.60;;;;;;4142984;28;19924;-82
2023/06/22 02:23:17;;;;;;;;;;;14.10;61.30;;;;;;4156562;28;20364;-83
2023/06/22 02:25:38;;;;;;;;;;;14.10;61.00;;;;;;4161132;28;20008;-82
2023/06/22 02:27:58;;;;;;;;;;;14.00;62.00;;;;;;4162113;28;20591;-82
2023/06/22 02:30:19;;;;;;;;;;;14.00;61.90;;;;;;4157853;28;20028;-82
2023/06/22 02:32:41;;;;;;;;;;;14.00;61.80;;;;;;4162866;28;19935;-84
2023/06/22 02:35:06;;;;;;;;;;;13.90;61.90;;;;;;4156447;28;19917;-84
2023/06/22 02:37:29;;;;;;;;;;;13.90;61.90;;;;;;4150498;28;19933;-82
2023/06/22 02:39:50;;;;;;;;;;;13.90;62.10;;;;;;4157031;28;19917;-83
2023/06/22 02:42:11;;;;;;;;;;;13.90;62.00;;;;;;4158291;28;19921;-83
2023/06/22 02:44:31;;;;;;;;;;;13.90;62.30;;;;;;4155189;28;19925;-82
2023/06/22 02:46:54;;;;;;;;;;;13.90;62.20;;;;;;4154978;28;19920;-83
2023/06/22 02:49:14;;;;;;;;;;;13.80;62.30;;;;;;4156500;28;19913;-82
2023/06/22 02:51:35;;;;;;;;;;;13.80;62.40;;;;;;4155240;28;19928;-83
2023/06/22 02:53:57;;;;;;;;;;;13.80;62.50;;;;;;4166984;28;19962;-81
2023/06/22 02:56:24;;;;;;;;;;;13.80;62.60;;;;;;4169668;28;19913;-82
2023/06/22 02:58:45;;;;;;;;;;;13.80;62.60;;;;;;4157831;28;20095;-83
2023/06/22 03:01:06;;;;;;;;;;;13.70;62.60;;;;;;4160185;28;19917;-82
2023/06/22 03:03:27;;;;;;;;;;;13.70;62.60;;;;;;4160515;28;20322;-82
2023/06/22 03:05:47;;;;;;;;;;;13.70;62.80;;;;;;4150309;28;19975;-84
2023/06/22 03:08:08;;;;;;;;;;;13.70;62.90;;;;;;4165863;28;19959;-83
2023/06/22 03:10:29;;;;;;;;;;;13.70;62.80;;;;;;4161622;28;21529;-83
2023/06/22 03:12:50;;;;;;;;;;;13.60;62.80;;;;;;4164390;28;19998;-82
2023/06/22 03:15:11;;;;;;;;;;;13.60;62.60;;;;;;4162632;28;19927;-83
2023/06/22 03:17:33;;;;;;;;;;;13.70;63.00;;;;;;4162755;28;19925;-85
2023/06/22 03:19:54;;;;;;;;;;;13.50;63.20;;;;;;4147121;28;19961;-83
2023/06/22 03:22:18;;;;;;;;;;;13.60;63.20;;;;;;4166242;28;20287;-83
2023/06/22 03:24:39;;;;;;;;;;;13.60;63.80;;;;;;4165236;28;19927;-83
2023/06/22 03:27:00;;;;;;;;;;;13.60;63.70;;;;;;4145723;28;19913;-83
2023/06/22 03:29:21;;;;;;;;;;;13.60;63.80;;;;;;4165632;28;20850;-83
2023/06/22 03:31:42;;;;;;;;;;;13.60;64.20;;;;;;4162876;28;19924;-81
2023/06/22 03:34:02;;;;;;;;;;;13.60;64.00;;;;;;4146497;28;19917;-80
2023/06/22 03:36:23;;;;;;;;;;;13.70;64.10;;;;;;4146850;28;20128;-83
2023/06/22 03:38:48;;;;;;;;;;;13.70;64.30;;;;;;4147270;28;20410;-84
2023/06/22 03:41:08;;;;;;;;;;;13.70;64.60;;;;;;4166848;28;19944;-82
2023/06/22 03:43:29;;;;;;;;;;;13.70;65.70;;;;;;4164650;28;19913;-83
2023/06/22 03:45:50;;;;;;;;;;;13.80;65.10;;;;;;4164907;28;19924;-82
2023/06/22 03:48:11;;;;;;;;;;;13.90;65.60;;;;;;4165004;28;20422;-83
2023/06/22 03:50:32;;;;;;;;;;;13.80;66.30;;;;;;4168970;28;20336;-83
2023/06/22 03:52:53;;;;;;;;;;;13.90;66.60;;;;;;4145706;28;19917;-84
2023/06/22 03:55:14;;;;;;;;;;;13.90;67.10;;;;;;4145244;28;19985;-83
2023/06/22 03:57:35;;;;;;;;;;;14.10;68.10;;;;;;4146526;28;19981;-84
2023/06/22 03:59:56;;;;;;;;;;;14.10;68.40;;;;;;4161046;28;19924;-81
2023/06/22 04:02:17;;;;;;;;;;;14.20;68.50;;;;;;4161174;28;19944;-82
2023/06/22 04:04:39;;;;;;;;;;;14.30;69.10;;;;;;4162462;28;19917;-83
2023/06/22 04:06:59;;;;;;;;;;;14.40;69.60;;;;;;4158567;28;19928;-82
2023/06/22 04:09:21;;;;;;;;;;;14.50;68.80;;;;;;4163486;28;19923;-83
2023/06/22 04:11:42;;;;;;;;;;;14.60;69.20;;;;;;4167334;28;19928;-83
2023/06/22 04:14:03;;;;;;;;;;;14.70;70.00;;;;;;4147742;28;19956;-82
2023/06/22 04:16:23;;;;;;;;;;;14.80;71.00;;;;;;4144232;28;19953;-83
2023/06/22 04:18:44;;;;;;;;;;;14.90;71.90;;;;;;4164357;28;19913;-83
2023/06/22 04:21:05;;;;;;;;;;;15.10;72.10;;;;;;4165428;28;19917;-83
2023/06/22 04:23:26;;;;;;;;;;;15.10;73.20;;;;;;4160242;28;20015;-83
2023/06/22 04:25:47;;;;;;;;;;;15.30;74.00;;;;;;4158679;28;20396;-83
2023/06/22 04:28:12;;;;;;;;;;;15.40;74.20;;;;;;4161627;28;19929;-83
2023/06/22 04:30:33;;;;;;;;;;;15.50;74.20;;;;;;4141301;28;19917;-82
2023/06/22 04:32:57;;;;;;;;;;;15.60;74.10;;;;;;4166216;28;19932;-83
2023/06/22 04:35:18;;;;;;;;;;;15.70;74.40;;;;;;4163432;28;19991;-83
2023/06/22 04:37:39;;;;;;;;;;;15.90;75.50;;;;;;4163687;28;19964;-84
2023/06/22 04:39:59;;;;;;;;;;;16.00;75.30;;;;;;4166837;28;20358;-83
2023/06/22 04:42:20;;;;;;;;;;;16.10;75.30;;;;;;4158988;28;20079;-82
2023/06/22 04:44:42;;;;;;;;;;;16.20;75.00;;;;;;4159328;28;19929;-81
2023/06/22 04:47:03;;;;;;;;;;;16.30;75.20;;;;;;4159031;28;22206;-82
2023/06/22 04:49:32;;;;;;;;;;;16.40;75.50;;;;;;4161655;28;20058;-82
2023/06/22 04:51:54;;;;;;;;;;;16.60;75.30;;;;;;4160883;28;19925;-82
2023/06/22 04:54:15;;;;;;;;;;;16.70;75.10;;;;;;4162139;28;20016;-82
2023/06/22 04:56:36;;;;;;;;;;;16.80;74.60;;;;;;4159908;28;19940;-83
2023/06/22 04:58:57;;;;;;;;;;;16.90;74.60;;;;;;4160852;28;19927;-83
2023/06/22 05:01:19;;;;;;;;;;;17.00;75.10;;;;;;4156485;28;19967;-83
2023/06/22 05:03:41;;;;;;;;;;;17.10;75.30;;;;;;4159530;28;19913;-82
2023/06/22 05:06:02;;;;;;;;;;;17.30;74.70;;;;;;4155195;28;20015;-81
2023/06/22 05:08:26;;;;;;;;;;;17.40;74.40;;;;;;4158544;28;19921;-83
2023/06/22 05:10:47;;;;;;;;;;;17.50;74.50;;;;;;4143629;28;19936;-84
2023/06/22 05:13:11;;;;;;;;;;;17.60;74.20;;;;;;4160813;28;19925;-83
2023/06/22 05:15:36;;;;;;;;;;;17.70;74.20;;;;;;4158200;28;19924;-82
2023/06/22 05:17:58;;;;;;;;;;;17.80;73.10;;;;;;4159570;28;21365;-83
2023/06/22 05:20:19;;;;;;;;;;;17.90;72.50;;;;;;4156450;28;20014;-83
2023/06/22 05:22:40;;;;;;;;;;;18.00;72.00;;;;;;4155494;28;19925;-83
2023/06/22 05:25:00;;;;;;;;;;;18.10;71.60;;;;;;4173405;28;19967;-81
2023/06/22 05:27:21;;;;;;;;;;;18.20;71.20;;;;;;4174438;28;19921;-80
2023/06/22 05:29:42;;;;;;;;;;;18.30;70.40;;;;;;4159991;28;19940;-82
2023/06/22 05:32:03;;;;;;;;;;;18.30;70.40;;;;;;4162793;28;19956;-82
2023/06/22 05:34:24;;;;;;;;;;;18.40;70.00;;;;;;4148064;28;19992;-82
2023/06/22 05:36:45;;;;;;;;;;;18.60;69.50;;;;;;4145019;28;19918;-83
2023/06/22 05:39:15;;;;;;;;;;;18.60;69.00;;;;;;4159145;28;19921;-80
2023/06/22 05:41:36;;;;;;;;;;;18.70;68.90;;;;;;4161905;28;19919;-81
2023/06/22 05:43:57;;;;;;;;;;;18.80;69.10;;;;;;4145122;28;19921;-81
2023/06/22 05:46:19;;;;;;;;;;;18.90;69.20;;;;;;4160081;28;19948;-82
2023/06/22 05:48:39;;;;;;;;;;;19.00;69.10;;;;;;4161181;28;19913;-81
2023/06/22 05:51:00;;;;;;;;;;;19.10;69.00;;;;;;4149154;28;19913;-81
2023/06/22 05:53:31;;;;;;;;;;;;;;;;;;;;;
2023/06/22 05:55:52;;;;;;;;;;;19.30;67.70;;;;;;4159271;28;20036;-82
2023/06/22 05:58:14;;;;;;;;;;;19.40;68.10;;;;;;4177464;28;20317;-85
2023/06/22 06:00:35;;;;;;;;;;;19.40;66.80;;;;;;4166977;28;20201;-82
2023/06/22 06:02:56;;;;;;;;;;;19.50;66.70;;;;;;4165742;28;19926;-82
2023/06/22 06:05:18;;;;;;;;;;;19.60;66.70;;;;;;4160687;28;19957;-82
2023/06/22 06:07:39;;;;;;;;;;;19.70;65.90;;;;;;4160285;28;19996;-82
2023/06/22 06:10:00;;;;;;;;;;;19.70;66.10;;;;;;4161678;28;19929;-82
2023/06/22 06:12:20;;;;;;;;;;;19.70;65.20;;;;;;4161928;28;19980;-82
2023/06/22 06:14:41;;;;;;;;;;;19.80;64.70;;;;;;4163624;28;19913;-81
2023/06/22 06:17:02;;;;;;;;;;;19.80;64.70;;;;;;4142263;28;19917;-82
2023/06/22 06:19:23;;;;;;;;;;;19.90;64.50;;;;;;4148894;28;19968;-82
2023/06/22 06:21:44;;;;;;;;;;;20.00;64.80;;;;;;4160583;28;20018;-82
2023/06/22 06:24:05;;;;;;;;;;;20.00;64.50;;;;;;4147294;28;19918;-82
2023/06/22 06:26:29;;;;;;;;;;;20.10;64.60;;;;;;4160091;28;19932;-82
2023/06/22 06:28:50;;;;;;;;;;;20.20;64.60;;;;;;4160733;28;20337;-82
2023/06/22 06:31:11;;;;;;;;;;;20.30;64.20;;;;;;4158491;28;19917;-83
2023/06/22 06:33:32;;;;;;;;;;;20.30;63.60;;;;;;4157605;28;20503;-80
2023/06/22 06:35:55;;;;;;;;;;;20.50;63.50;;;;;;4155143;28;19924;-84
2023/06/22 06:38:16;;;;;;;;;;;20.50;62.80;;;;;;4161591;28;19921;-81
2023/06/22 06:40:37;;;;;;;;;;;20.60;62.30;;;;;;4161553;28;19925;-81
2023/06/22 06:42:58;;;;;;;;;;;20.70;62.00;;;;;;4149937;28;19913;-81
2023/06/22 06:45:22;;;;;;;;;;;20.70;61.40;;;;;;4162150;28;19924;-81
2023/06/22 06:47:43;;;;;;;;;;;20.70;61.00;;;;;;4148521;28;20036;-82
2023/06/22 06:52:44;;;;;;;;;;;20.80;60.70;;;;;;4159361;28;19917;-81
2023/06/22 06:55:08;;;;;;;;;;;20.90;60.30;;;;;;4160431;28;19917;-81
2023/06/22 06:57:30;;;;;;;;;;;20.90;60.10;;;;;;4158094;28;19924;-81
2023/06/22 06:59:50;;;;;;;;;;;21.00;60.00;;;;;;4158808;28;20034;-79
2023/06/22 07:02:11;;;;;;;;;;;21.00;59.90;;;;;;4163947;28;19952;-81
2023/06/22 07:04:32;;;;;;;;;;;21.10;59.90;;;;;;4148463;28;19914;-82
2023/06/22 07:06:53;;;;;;;;;;;21.10;59.70;;;;;;4160794;28;19924;-81
2023/06/22 07:09:14;;;;;;;;;;;21.20;59.40;;;;;;4162504;28;20054;-81
2023/06/22 07:11:36;;;;;;;;;;;21.20;59.30;;;;;;4160850;28;20008;-81
2023/06/22 07:13:57;;;;;;;;;;;21.30;59.30;;;;;;4174001;28;19967;-82
2023/06/22 07:16:18;;;;;;;;;;;21.30;59.10;;;;;;4162494;28;19924;-82
2023/06/22 07:18:39;;;;;;;;;;;21.40;58.40;;;;;;4176642;28;19908;-81
2023/06/22 07:21:00;;;;;;;;;;;21.50;58.60;;;;;;4161278;28;20533;-81
2023/06/22 07:23:21;;;;;;;;;;;21.50;57.60;;;;;;4164577;28;19917;-78
2023/06/22 07:25:43;;;;;;;;;;;21.60;57.90;;;;;;4150937;28;19929;-82
2023/06/22 07:28:05;;;;;;;;;;;21.70;58.50;;;;;;4163274;28;20027;-81
2023/06/22 07:30:26;;;;;;;;;;;21.70;57.90;;;;;;4164075;28;21397;-80
2023/06/22 07:32:47;;;;;;;;;;;21.80;57.90;;;;;;4162308;28;19917;-81
2023/06/22 07:35:08;;;;;;;;;;;21.90;57.50;;;;;;4161923;28;19909;-80
2023/06/22 07:37:29;;;;;;;;;;;21.90;57.50;;;;;;4160544;28;19968;-82
2023/06/22 07:39:53;;;;;;;;;;;22.00;57.50;;;;;;4163177;28;19905;-80
2023/06/22 07:42:18;;;;;;;;;;;22.10;56.90;;;;;;4159898;28;20395;-83
2023/06/22 07:44:39;;;;;;;;;;;22.10;56.70;;;;;;4171151;28;19917;-82
2023/06/22 07:47:00;;;;;;;;;;;22.20;56.80;;;;;;4168805;28;19920;-82
2023/06/22 07:49:21;;;;;;;;;;;22.20;56.60;;;;;;4169958;28;20218;-82
2023/06/22 07:51:41;;;;;;;;;;;22.30;56.20;;;;;;4168469;28;19913;-83
2023/06/22 07:54:02;;;;;;;;;;;22.40;56.00;;;;;;4168697;28;20364;-83
2023/06/22 07:56:23;;;;;;;;;;;22.50;55.20;;;;;;4179259;28;19931;-82
2023/06/22 07:58:45;;;;;;;;;;;22.50;55.70;;;;;;4166558;28;19920;-82
2023/06/22 08:01:06;;;;;;;;;;;22.50;54.30;;;;;;4165173;28;19913;-82
2023/06/22 08:03:26;;;;;;;;;;;22.60;54.00;;;;;;4156938;28;20549;-82
2023/06/22 08:05:48;;;;;;;;;;;22.70;54.30;;;;;;4164672;28;20307;-82
2023/06/22 08:08:11;;;;;;;;;;;22.70;53.00;;;;;;4150907;28;20012;-82
2023/06/22 08:10:32;;;;;;;;;;;22.70;53.20;;;;;;4171707;28;20462;-81
2023/06/22 08:12:53;;;;;;;;;;;22.80;53.60;;;;;;4165880;28;20219;-82
2023/06/22 08:15:14;;;;;;;;;;;22.90;53.70;;;;;;4168537;28;19936;-82
2023/06/22 08:17:37;;;;;;;;;;;23.00;54.10;;;;;;4168170;28;19947;-81
2023/06/22 08:19:58;;;;;;;;;;;23.00;53.90;;;;;;4168976;28;19921;-82
2023/06/22 08:22:19;;;;;;;;;;;23.10;52.20;;;;;;4166203;28;19921;-82
2023/06/22 08:24:40;;;;;;;;;;;23.10;53.00;;;;;;4158836;28;19925;-81
2023/06/22 08:27:01;;;;;;;;;;;23.10;51.40;;;;;;4162862;28;19940;-82
2023/06/22 08:29:22;;;;;;;;;;;23.20;52.30;;;;;;4159616;28;19917;-83
2023/06/22 08:31:42;;;;;;;;;;;23.20;50.30;;;;;;4159744;28;19921;-81
2023/06/22 08:34:03;;;;;;;;;;;23.20;49.80;;;;;;4169709;28;19913;-81
2023/06/22 08:36:24;;;;;;;;;;;23.20;49.70;;;;;;4163274;28;19918;-82
2023/06/22 08:38:50;;;;;;;;;;;23.20;50.90;;;;;;4166444;28;19917;-82
2023/06/22 08:41:10;;;;;;;;;;;23.10;50.00;;;;;;4164862;28;19917;-83
2023/06/22 08:43:31;;;;;;;;;;;23.10;50.00;;;;;;4162567;28;19976;-81
2023/06/22 08:45:52;;;;;;;;;;;23.10;50.00;;;;;;4165253;28;19925;-81
2023/06/22 08:48:16;;;;;;;;;;;23.10;50.30;;;;;;4165740;28;19928;-81
2023/06/22 08:50:37;;;;;;;;;;;23.20;50.50;;;;;;4148736;28;19932;-83
2023/06/22 08:52:57;;;;;;;;;;;23.20;50.70;;;;;;4149391;28;20019;-82
2023/06/22 08:55:26;;;;;;;;;;;23.20;50.90;;;;;;4162260;28;19917;-82
2023/06/22 08:57:47;;;;;;;;;;;23.20;50.40;;;;;;4157865;28;19921;-83
2023/06/22 09:00:16;;;;;;;;;;;23.30;48.40;;;;;;4162179;28;20055;-82
2023/06/22 09:02:38;;;;;;;;;;;23.30;49.40;;;;;;4160646;28;20740;-83
2023/06/22 09:04:59;;;;;;;;;;;23.30;48.80;;;;;;4164350;28;19948;-82
2023/06/22 09:07:22;;;;;;;;;;;23.30;49.10;;;;;;4142764;28;19952;-83
2023/06/22 09:09:42;;;;;;;;;;;23.40;49.40;;;;;;4157769;28;19917;-82
2023/06/22 09:12:04;;;;;;;;;;;23.40;50.00;;;;;;4157284;28;20012;-81
2023/06/22 09:14:25;;;;;;;;;;;23.50;50.40;;;;;;4140691;28;20152;-82
2023/06/22 09:16:45;;;;;;;;;;;23.60;49.60;;;;;;4143991;28;19922;-82
2023/06/22 09:19:06;;;;;;;;;;;23.60;50.10;;;;;;4141260;28;19974;-82
2023/06/22 09:21:27;;;;;;;;;;;23.70;50.30;;;;;;4162607;28;19917;-83
2023/06/22 09:23:51;;;;;;;;;;;23.80;49.80;;;;;;4145972;28;19923;-82
2023/06/22 09:26:12;;;;;;;;;;;23.90;49.10;;;;;;4162339;28;19924;-83
2023/06/22 09:28:33;;;;;;;;;;;23.90;48.10;;;;;;4162080;28;19996;-81
2023/06/22 09:30:58;;;;;;;;;;;24.00;47.90;;;;;;4171188;28;19959;-82
2023/06/22 09:33:19;;;;;;;;;;;24.10;48.70;;;;;;4158675;28;19920;-82
2023/06/22 09:35:40;;;;;;;;;;;24.20;45.70;;;;;;4148179;28;20016;-82
2023/06/22 09:38:01;;;;;;;;;;;24.20;46.10;;;;;;4177440;28;20031;-83
2023/06/22 09:40:22;;;;;;;;;;;24.20;47.00;;;;;;4160908;28;19923;-83
2023/06/22 09:42:43;;;;;;;;;;;24.20;46.70;;;;;;4159133;28;19919;-83
2023/06/22 09:45:04;;;;;;;;;;;24.30;45.30;;;;;;4161188;28;20631;-82
2023/06/22 09:47:25;;;;;;;;;;;24.30;45.20;;;;;;4144531;28;19917;-82
2023/06/22 09:49:46;;;;;;;;;;;24.30;46.20;;;;;;4144478;28;19921;-82
2023/06/22 09:52:07;;;;;;;;;;;24.30;45.60;;;;;;4160491;28;20003;-83
2023/06/22 09:54:27;;;;;;;;;;;24.30;44.40;;;;;;4147028;28;19921;-82
2023/06/22 09:56:48;;;;;;;;;;;24.30;46.00;;;;;;4161802;28;19917;-83
2023/06/22 09:59:09;;;;;;;;;;;24.30;45.10;;;;;;4160710;28;19986;-83
2023/06/22 10:01:30;;;;;;;;;;;24.30;45.20;;;;;;4156519;28;19921;-81
2023/06/22 10:03:54;;;;;;;;;;;24.30;44.70;;;;;;4161733;28;19997;-83
2023/06/22 10:06:17;;;;;;;;;;;24.30;45.20;;;;;;4175393;28;20120;-83
2023/06/22 10:08:39;;;;;;;;;;;24.40;45.60;;;;;;4165582;28;19921;-82
2023/06/22 10:10:59;;;;;;;;;;;24.40;46.00;;;;;;4164376;28;19929;-82
2023/06/22 10:13:20;;;;;;;;;;;24.40;45.50;;;;;;4161825;28;19985;-81
2023/06/22 10:15:41;;;;;;;;;;;24.50;46.00;;;;;;4163821;28;19974;-83
2023/06/22 10:18:02;;;;;;;;;;;24.60;45.50;;;;;;4164745;28;19921;-81
2023/06/22 10:20:23;;;;;;;;;;;24.60;44.90;;;;;;4164481;28;19967;-83
2023/06/22 10:25:31;;;;;;;;;;;24.70;45.50;;;;;;4164695;28;19925;-82
2023/06/22 10:27:52;;;;;;;;;;;24.80;44.10;;;;;;4166303;28;19924;-82
2023/06/22 10:30:16;;;;;;;;;;;24.80;44.80;;;;;;4166059;28;19913;-83
2023/06/22 10:32:38;;;;;;;;;;;24.90;45.00;;;;;;4167420;28;20007;-83
2023/06/22 10:34:58;;;;;;;;;;;25.00;45.20;;;;;;4177492;28;20003;-82
2023/06/22 10:37:19;;;;;;;;;;;25.00;43.80;;;;;;4176684;28;20083;-82
2023/06/22 10:39:40;;;;;;;;;;;25.00;44.30;;;;;;4150169;28;19920;-81
2023/06/22 10:42:01;;;;;;;;;;;25.10;44.00;;;;;;4163755;28;19967;-83
2023/06/22 10:44:22;;;;;;;;;;;25.10;45.10;;;;;;4164358;28;19914;-82
2023/06/22 10:46:43;;;;;;;;;;;25.10;44.00;;;;;;4165371;28;19925;-83
2023/06/22 10:49:04;;;;;;;;;;;25.10;43.80;;;;;;4150882;28;19949;-81
2023/06/22 10:51:25;;;;;;;;;;;25.10;44.20;;;;;;4169026;28;20333;-81
2023/06/22 10:53:46;;;;;;;;;;;25.10;44.70;;;;;;4154815;28;19980;-83
2023/06/22 10:56:07;;;;;;;;;;;25.10;44.60;;;;;;4158925;28;20308;-83
2023/06/22 10:58:28;;;;;;;;;;;25.00;45.10;;;;;;4157154;28;19956;-82
2023/06/22 11:00:48;;;;;;;;;;;25.10;45.10;;;;;;4170183;28;21586;-83
2023/06/22 11:03:27;;;;;;;;;;;25.10;45.00;;;;;;4168220;28;19913;-82
2023/06/22 11:06:01;;;;;;;;;;;25.10;43.00;;;;;;4171675;28;19991;-83
2023/06/22 11:08:22;;;;;;;;;;;25.10;42.80;;;;;;4155122;28;20005;-82
2023/06/22 11:10:43;;;;;;;;;;;25.00;42.50;;;;;;4169965;28;19913;-83
2023/06/22 11:13:05;;;;;;;;;;;24.90;41.90;;;;;;4170254;28;19944;-81
2023/06/22 11:15:26;;;;;;;;;;;25.00;42.00;;;;;;4169763;28;19973;-80
2023/06/22 11:17:47;;;;;;;;;;;24.90;43.10;;;;;;4169428;28;19984;-83
2023/06/22 11:20:11;;;;;;;;;;;24.90;43.30;;;;;;4166552;28;19932;-82
2023/06/22 11:22:33;;;;;;;;;;;24.90;42.00;;;;;;4170911;28;19920;-82
2023/06/22 11:24:54;;;;;;;;;;;24.90;43.10;;;;;;4169210;28;19917;-82
2023/06/22 11:27:15;;;;;;;;;;;24.80;43.20;;;;;;4168069;28;19921;-82
2023/06/22 11:29:36;;;;;;;;;;;24.80;42.80;;;;;;4168735;28;19963;-83
2023/06/22 11:31:56;;;;;;;;;;;24.90;43.20;;;;;;4169406;28;19917;-82
2023/06/22 11:34:18;;;;;;;;;;;24.80;42.20;;;;;;4161924;28;19921;-81
2023/06/22 11:36:39;;;;;;;;;;;24.90;43.10;;;;;;4253110;23;20407;-81
2023/06/22 11:39:00;;;;;;;;;;;24.90;42.70;;;;;;4131414;28;19926;-82
2023/06/22 11:41:22;;;;;;;;;;;24.90;42.50;;;;;;4142562;28;19920;-80
2023/06/22 11:43:43;;;;;;;;;;;24.90;43.20;;;;;;4142302;28;20002;-83
2023/06/22 11:46:04;;;;;;;;;;;24.90;43.20;;;;;;4143395;28;20384;-81
2023/06/22 11:48:25;;;;;;;;;;;25.00;43.00;;;;;;4129133;28;19950;-81
2023/06/22 11:50:46;;;;;;;;;;;25.00;42.80;;;;;;4150789;28;20442;-80
2023/06/22 11:53:07;;;;;;;;;;;25.10;43.20;;;;;;4127380;28;19922;-80
2023/06/22 11:55:28;;;;;;;;;;;25.10;42.20;;;;;;4146928;28;20000;-81
2023/06/22 11:57:56;;;;;;;;;;;25.20;42.50;;;;;;4145443;28;19941;-80
2023/06/22 12:00:17;;;;;;;;;;;25.20;42.60;;;;;;4145216;28;19922;-80
2023/06/22 12:02:40;;;;;;;;;;;25.20;40.90;;;;;;4149056;28;19921;-81
2023/06/22 12:05:04;;;;;;;;;;;25.30;42.30;;;;;;4147937;28;20008;-81
2023/06/22 12:07:26;;;;;;;;;;;25.40;42.60;;;;;;4145392;28;20124;-81
2023/06/22 12:09:46;;;;;;;;;;;25.40;41.90;;;;;;4146928;28;19913;-81
2023/06/22 12:12:07;;;;;;;;;;;25.40;42.40;;;;;;4145406;28;19971;-81
2023/06/22 12:14:28;;;;;;;;;;;25.50;43.50;;;;;;4144793;28;19944;-83
2023/06/22 12:16:49;;;;;;;;;;;25.50;43.40;;;;;;4144051;28;19948;-81
2023/06/22 12:19:11;;;;;;;;;;;25.50;42.90;;;;;;4130253;28;19956;-81
2023/06/22 12:21:31;;;;;;;;;;;25.50;42.00;;;;;;4145810;28;19922;-81
2023/06/22 12:23:54;;;;;;;;;;;25.50;42.10;;;;;;4147150;28;19973;-81
2023/06/22 12:26:15;;;;;;;;;;;25.60;42.00;;;;;;4141506;28;19917;-82
2023/06/22 12:28:36;;;;;;;;;;;25.50;41.90;;;;;;4145406;28;20004;-83
2023/06/22 12:31:00;;;;;;;;;;;25.50;41.10;;;;;;4156793;28;19913;-84
2023/06/22 12:33:21;;;;;;;;;;;25.40;41.00;;;;;;4144834;28;19984;-83
2023/06/22 12:35:43;;;;;;;;;;;25.50;42.60;;;;;;4133563;28;19918;-82
2023/06/22 12:38:06;;;;;;;;;;;25.60;42.90;;;;;;4159539;28;19952;-81
2023/06/22 12:40:27;;;;;;;;;;;25.60;42.50;;;;;;4154902;28;20390;-83
2023/06/22 12:42:57;;;;;;;;;;;25.60;40.80;;;;;;4147933;28;19922;-81
2023/06/22 12:45:18;;;;;;;;;;;25.60;41.30;;;;;;4146503;28;19932;-82
2023/06/22 12:47:39;;;;;;;;;;;25.60;41.20;;;;;;4148031;28;19913;-81
2023/06/22 12:50:00;;;;;;;;;;;25.70;40.90;;;;;;4157482;28;19914;-82
2023/06/22 12:52:21;;;;;;;;;;;25.70;40.80;;;;;;4148302;28;19913;-82
2023/06/22 12:54:42;;;;;;;;;;;25.70;41.10;;;;;;4144775;28;19924;-83
2023/06/22 12:57:03;;;;;;;;;;;25.70;39.90;;;;;;4151563;28;19909;-83
2023/06/22 12:59:29;;;;;;;;;;;25.70;40.00;;;;;;4142925;28;19917;-84
2023/06/22 13:01:53;;;;;;;;;;;25.80;40.20;;;;;;4151233;28;20500;-81
2023/06/22 13:04:14;;;;;;;;;;;25.80;40.90;;;;;;4155584;28;19913;-82
2023/06/22 13:06:35;;;;;;;;;;;25.80;40.70;;;;;;4131498;28;20588;-83
2023/06/22 13:08:56;;;;;;;;;;;25.80;41.10;;;;;;4145709;28;19918;-82
2023/06/22 13:11:17;;;;;;;;;;;25.80;40.80;;;;;;4144064;28;19929;-83
2023/06/22 13:13:38;;;;;;;;;;;25.80;39.60;;;;;;4146771;28;19918;-82
2023/06/22 13:16:02;;;;;;;;;;;25.70;40.20;;;;;;4127640;28;19913;-81
2023/06/22 13:18:23;;;;;;;;;;;25.80;40.50;;;;;;4140792;28;19917;-84
2023/06/22 13:20:45;;;;;;;;;;;25.80;40.20;;;;;;4141539;28;19921;-83
2023/06/22 13:23:06;;;;;;;;;;;25.70;39.60;;;;;;4137110;28;19922;-84
2023/06/22 13:25:27;;;;;;;;;;;25.60;39.50;;;;;;4141681;28;19922;-83
2023/06/22 13:27:55;;;;;;;;;;;25.50;39.90;;;;;;4144896;28;20012;-83
2023/06/22 13:30:16;;;;;;;;;;;25.50;40.80;;;;;;4144614;28;20406;-82
2023/06/22 13:32:37;;;;;;;;;;;25.40;40.80;;;;;;4129228;28;20316;-82
2023/06/22 13:34:58;;;;;;;;;;;25.30;41.60;;;;;;4139624;28;20418;-82
2023/06/22 13:37:19;;;;;;;;;;;25.30;41.90;;;;;;4132497;28;19936;-82
2023/06/22 13:39:39;;;;;;;;;;;25.30;42.50;;;;;;4140623;28;19924;-81
2023/06/22 13:42:00;;;;;;;;;;;25.20;41.50;;;;;;4144469;28;19913;-81
2023/06/22 13:44:22;;;;;;;;;;;25.20;41.70;;;;;;4143706;28;19921;-82
2023/06/22 13:46:42;;;;;;;;;;;25.30;42.20;;;;;;4131569;28;20032;-82
2023/06/22 13:49:03;;;;;;;;;;;25.30;40.90;;;;;;4148337;28;19941;-82
2023/06/22 13:51:24;;;;;;;;;;;25.30;42.10;;;;;;4155825;28;19955;-83